Time;durP1;ratioP1;P1;durP2;ratioP2;P2;SDS_P1;SDS_P2;PMS_P1;PMS_P2;Temp;Humidity;BMP_temperature;BMP_pressure;BME280_temperature;BME280_humidity;BME280_pressure;Samples;Min_cycle;Max_cycle;Signal;HPM_P1;HPM_P2
2021/06/12 00:00:38;;;;;;;2.77;2.57;;;17.40;99.90;;;;;;5083055;28;20376;-65
2021/06/12 00:03:07;;;;;;;2.50;2.40;;;17.40;99.90;;;;;;5073449;28;20218;-65
2021/06/12 00:05:34;;;;;;;2.60;2.40;;;17.40;99.90;;;;;;5082740;28;20191;-65
2021/06/12 00:08:03;;;;;;;3.17;2.80;;;17.30;99.90;;;;;;5080359;28;20360;-65
2021/06/12 00:10:34;;;;;;;3.10;2.60;;;17.30;99.90;;;;;;5083378;28;20311;-65
2021/06/12 00:13:03;;;;;;;2.80;2.70;;;17.20;99.90;;;;;;5079323;28;20239;-65
2021/06/12 00:15:32;;;;;;;3.10;2.90;;;17.10;99.90;;;;;;5063195;28;20198;-65
2021/06/12 00:18:02;;;;;;;3.10;2.90;;;17.10;99.90;;;;;;5081123;28;20398;-65
2021/06/12 00:20:32;;;;;;;2.83;2.63;;;17.10;99.90;;;;;;5082016;28;20308;-65
2021/06/12 00:22:59;;;;;;;2.60;2.50;;;17.10;99.90;;;;;;5077341;28;20214;-65
2021/06/12 00:25:29;;;;;;;3.00;2.80;;;17.00;99.90;;;;;;5080953;28;20373;-65
2021/06/12 00:27:59;;;;;;;5.13;3.00;;;17.00;99.90;;;;;;5083097;28;20254;-65
2021/06/12 00:30:27;;;;;;;3.40;3.10;;;16.90;99.90;;;;;;5080418;28;20206;-64
2021/06/12 00:32:55;;;;;;;3.20;3.00;;;16.90;99.90;;;;;;5075353;28;20195;-64
2021/06/12 00:35:26;;;;;;;3.10;2.90;;;16.90;99.90;;;;;;5083160;28;20408;-64
2021/06/12 00:37:54;;;;;;;3.30;3.10;;;16.90;99.90;;;;;;5067713;28;20189;-64
2021/06/12 00:40:23;;;;;;;3.97;3.37;;;16.80;99.90;;;;;;5068792;28;20304;-65
2021/06/12 00:42:52;;;;;;;6.67;3.30;;;16.80;99.90;;;;;;5065465;28;20211;-65
2021/06/12 00:45:23;;;;;;;3.63;3.43;;;16.80;99.90;;;;;;5081444;28;20195;-65
2021/06/12 00:47:55;;;;;;;3.83;3.40;;;16.70;99.90;;;;;;5081280;28;20453;-65
2021/06/12 00:50:28;;;;;;;3.57;3.37;;;16.70;99.90;;;;;;5081800;28;20212;-65
2021/06/12 00:52:55;;;;;;;3.60;3.13;;;16.60;99.90;;;;;;5081962;28;20387;-64
2021/06/12 00:55:24;;;;;;;4.50;3.63;;;16.60;99.90;;;;;;5064745;28;353035;-65
2021/06/12 00:57:52;;;;;;;3.43;3.13;;;16.60;99.90;;;;;;5063649;28;20176;-64
2021/06/12 01:00:21;;;;;;;3.93;3.67;;;16.50;99.90;;;;;;5081434;28;20192;-65
2021/06/12 01:03:14;;;;;;;3.50;3.20;;;16.50;99.90;;;;;;5082975;28;20441;-64
2021/06/12 01:05:44;;;;;;;3.63;3.40;;;16.50;99.90;;;;;;5081938;28;20188;-65
2021/06/12 01:08:14;;;;;;;4.10;3.60;;;16.40;99.90;;;;;;5082819;28;20195;-64
2021/06/12 01:10:42;;;;;;;4.50;4.10;;;16.40;99.90;;;;;;5081589;28;20188;-65
2021/06/12 01:13:31;;;;;;;5.20;4.07;;;16.30;99.90;;;;;;5082421;28;20444;-65
2021/06/12 01:16:02;;;;;;;5.37;4.43;;;16.30;99.90;;;;;;5063521;28;20250;-65
2021/06/12 01:18:33;;;;;;;5.10;4.60;;;16.20;99.90;;;;;;5082449;28;20184;-65
2021/06/12 01:21:10;;;;;;;6.83;4.80;;;16.20;99.90;;;;;;5083508;28;20176;-64
2021/06/12 01:24:03;;;;;;;5.80;5.30;;;16.10;99.90;;;;;;5080821;28;20212;-65
2021/06/12 01:26:53;;;;;;;8.73;5.23;;;16.00;99.90;;;;;;5078079;28;20188;-64
2021/06/12 01:29:33;;;;;;;5.70;5.20;;;16.00;99.90;;;;;;5080101;28;20180;-65
2021/06/12 01:32:03;;;;;;;7.00;5.03;;;16.00;99.90;;;;;;5081959;28;20199;-65
2021/06/12 01:34:33;;;;;;;6.20;5.33;;;15.90;99.90;;;;;;5079471;28;20460;-65
2021/06/12 01:37:03;;;;;;;6.40;5.50;;;15.90;99.90;;;;;;5080354;28;20180;-65
2021/06/12 01:39:30;;;;;;;7.30;5.60;;;15.80;99.90;;;;;;5083472;28;20388;-64
2021/06/12 01:42:04;;;;;;;6.43;5.60;;;15.80;99.90;;;;;;5063980;28;20327;-64
2021/06/12 01:44:33;;;;;;;6.50;5.40;;;15.80;99.90;;;;;;5080225;28;20184;-65
2021/06/12 01:47:03;;;;;;;8.67;5.83;;;15.80;99.90;;;;;;5082474;28;20188;-65
2021/06/12 01:49:33;;;;;;;6.80;5.90;;;15.80;99.90;;;;;;5082563;28;20233;-65
2021/06/12 01:52:01;;;;;;;7.33;5.57;;;15.70;99.90;;;;;;5065232;28;20181;-65
2021/06/12 01:54:30;;;;;;;7.47;5.80;;;15.70;99.90;;;;;;5081256;28;20226;-65
2021/06/12 01:57:00;;;;;;;7.63;5.63;;;15.70;99.90;;;;;;5081653;28;20217;-64
2021/06/12 01:59:28;;;;;;;7.83;6.40;;;15.60;99.90;;;;;;5075497;28;20199;-65
2021/06/12 02:02:00;;;;;;;9.60;7.10;;;15.60;99.90;;;;;;5083162;28;20211;-65
2021/06/12 02:04:30;;;;;;;9.53;6.90;;;15.50;99.90;;;;;;5082505;28;20188;-65
2021/06/12 02:07:02;;;;;;;9.83;7.03;;;15.50;99.90;;;;;;5080980;28;20238;-64
2021/06/12 02:09:31;;;;;;;10.23;7.63;;;15.50;99.90;;;;;;5069471;28;20184;-64
2021/06/12 02:12:00;;;;;;;14.47;8.50;;;15.50;99.90;;;;;;5076792;28;20203;-64
2021/06/12 02:14:28;;;;;;;12.83;9.27;;;15.50;99.90;;;;;;5081751;28;20183;-64
2021/06/12 02:16:57;;;;;;;17.67;9.57;;;15.50;99.90;;;;;;5081796;28;20198;-63
2021/06/12 02:19:26;;;;;;;16.53;10.70;;;15.50;99.90;;;;;;5080735;28;20200;-64
2021/06/12 02:21:56;;;;;;;18.33;12.10;;;15.50;99.90;;;;;;5082289;28;20390;-63
2021/06/12 02:24:24;;;;;;;16.67;11.73;;;15.50;99.90;;;;;;5083755;28;20216;-64
2021/06/12 02:26:54;;;;;;;18.40;11.60;;;15.50;99.90;;;;;;5068434;28;20453;-64
2021/06/12 02:29:23;;;;;;;20.37;14.17;;;15.50;99.90;;;;;;5083033;28;20188;-64
2021/06/12 02:32:02;;;;;;;26.97;15.73;;;15.50;99.90;;;;;;5083599;28;20388;-64
2021/06/12 02:34:31;;;;;;;25.93;15.97;;;15.50;99.90;;;;;;5083706;28;20379;-64
2021/06/12 02:37:02;;;;;;;26.83;16.37;;;15.50;99.90;;;;;;5082892;28;20200;-64
2021/06/12 02:39:30;;;;;;;29.97;17.47;;;15.50;99.90;;;;;;5081672;28;20191;-66
2021/06/12 02:41:58;;;;;;;32.50;18.80;;;15.50;99.90;;;;;;5086379;28;20417;-66
2021/06/12 02:44:26;;;;;;;32.13;18.93;;;15.60;99.90;;;;;;5083206;28;20212;-66
2021/06/12 02:46:57;;;;;;;33.83;19.27;;;15.50;99.90;;;;;;5082793;28;20250;-66
2021/06/12 02:49:31;;;;;;;32.30;19.20;;;15.50;99.90;;;;;;5067740;28;20257;-66
2021/06/12 02:52:03;;;;;;;29.47;18.20;;;15.60;99.90;;;;;;5084889;28;20250;-66
2021/06/12 02:54:33;;;;;;;31.87;18.23;;;15.50;99.90;;;;;;5084229;28;20200;-66
2021/06/12 02:57:01;;;;;;;33.67;20.13;;;15.50;99.90;;;;;;5086045;28;20262;-66
2021/06/12 02:59:31;;;;;;;35.13;20.50;;;15.60;99.90;;;;;;5083887;28;20188;-66
2021/06/12 03:02:00;;;;;;;36.13;20.07;;;15.60;99.90;;;;;;5086123;28;20380;-66
2021/06/12 03:04:31;;;;;;;35.60;20.70;;;15.60;99.90;;;;;;5086317;28;20254;-66
2021/06/12 03:06:59;;;;;;;35.77;20.77;;;15.60;99.90;;;;;;5081190;28;20289;-66
2021/06/12 03:09:30;;;;;;;32.43;19.77;;;15.60;99.90;;;;;;5085872;28;20247;-66
2021/06/12 03:11:58;;;;;;;31.77;19.03;;;15.60;99.90;;;;;;5085695;28;20192;-65
2021/06/12 03:14:31;;;;;;;38.20;21.30;;;15.70;99.90;;;;;;5084504;28;20453;-66
2021/06/12 03:16:59;;;;;;;33.10;20.23;;;15.70;99.90;;;;;;5076320;28;20204;-66
2021/06/12 03:19:28;;;;;;;37.90;21.73;;;15.70;99.90;;;;;;5084288;28;20196;-66
2021/06/12 03:21:57;;;;;;;34.40;20.77;;;15.70;99.90;;;;;;5082954;28;20204;-65
2021/06/12 03:24:27;;;;;;;32.70;20.00;;;15.70;99.90;;;;;;5085053;28;20209;-66
2021/06/12 03:26:59;;;;;;;38.07;22.17;;;15.70;99.90;;;;;;5084937;28;20214;-66
2021/06/12 03:29:28;;;;;;;39.90;22.10;;;15.70;99.90;;;;;;5085777;28;20193;-66
2021/06/12 03:31:57;;;;;;;36.93;21.13;;;15.80;99.90;;;;;;5084610;28;20258;-65
2021/06/12 03:34:27;;;;;;;36.53;21.33;;;15.70;99.90;;;;;;5080831;28;20255;-66
2021/06/12 03:36:57;;;;;;;33.33;19.87;;;15.70;99.90;;;;;;5082666;28;20200;-66
2021/06/12 03:39:24;;;;;;;37.47;21.27;;;15.70;99.90;;;;;;5082213;28;20308;-66
2021/06/12 03:41:54;;;;;;;34.13;20.50;;;15.60;99.90;;;;;;5090482;28;20191;-66
2021/06/12 03:44:25;;;;;;;37.30;22.07;;;15.60;99.90;;;;;;5084656;28;20213;-66
2021/06/12 03:46:54;;;;;;;38.50;21.77;;;15.60;99.90;;;;;;5084389;28;20397;-66
2021/06/12 03:49:22;;;;;;;35.90;21.60;;;15.60;99.90;;;;;;5084083;28;20442;-66
2021/06/12 03:51:52;;;;;;;37.60;21.27;;;15.60;99.90;;;;;;5080760;28;20267;-66
2021/06/12 03:54:20;;;;;;;40.40;22.17;;;15.60;99.90;;;;;;5083336;28;20188;-66
2021/06/12 03:56:48;;;;;;;41.00;21.57;;;15.60;99.90;;;;;;5079110;28;20212;-66
2021/06/12 03:59:17;;;;;;;39.17;22.30;;;15.60;99.90;;;;;;5083657;28;20404;-66
2021/06/12 04:01:48;;;;;;;40.13;23.10;;;15.70;99.90;;;;;;5083923;28;20184;-66
2021/06/12 04:04:16;;;;;;;41.40;22.73;;;15.70;99.90;;;;;;5084807;28;20403;-67
2021/06/12 04:06:44;;;;;;;39.43;22.70;;;15.70;99.90;;;;;;5066020;28;20210;-66
2021/06/12 04:09:12;;;;;;;40.13;21.57;;;15.70;99.90;;;;;;5083087;28;20194;-66
2021/06/12 04:11:40;;;;;;;37.47;21.77;;;15.70;99.90;;;;;;5058400;28;20196;-66
2021/06/12 04:14:08;;;;;;;38.63;21.87;;;15.80;99.90;;;;;;5082773;28;20188;-66
2021/06/12 04:16:36;;;;;;;39.00;21.80;;;15.80;99.90;;;;;;5084479;28;20188;-66
2021/06/12 04:19:05;;;;;;;39.97;22.07;;;15.80;99.90;;;;;;5083219;28;20203;-66
2021/06/12 04:21:33;;;;;;;38.73;21.30;;;15.80;99.90;;;;;;5082398;28;20238;-66
2021/06/12 04:24:01;;;;;;;38.73;22.17;;;15.70;99.90;;;;;;5082222;28;20249;-66
2021/06/12 04:26:28;;;;;;;38.23;22.30;;;15.80;99.90;;;;;;5073932;28;20188;-66
2021/06/12 04:28:56;;;;;;;35.93;22.50;;;15.80;99.90;;;;;;5066036;28;20277;-66
2021/06/12 04:31:24;;;;;;;35.03;21.00;;;15.90;99.90;;;;;;5084794;28;20180;-67
2021/06/12 04:33:52;;;;;;;37.30;22.40;;;15.90;99.90;;;;;;5083741;28;20384;-66
2021/06/12 04:36:22;;;;;;;41.83;23.00;;;16.00;99.90;;;;;;5083108;28;20192;-66
2021/06/12 04:38:49;;;;;;;42.50;23.67;;;16.00;99.90;;;;;;5082137;28;20408;-66
2021/06/12 04:41:17;;;;;;;46.17;24.30;;;16.00;99.90;;;;;;5063689;28;20270;-66
2021/06/12 04:43:48;;;;;;;47.00;24.00;;;16.00;99.90;;;;;;5082791;28;20238;-66
2021/06/12 04:46:16;;;;;;;44.80;24.40;;;16.00;99.90;;;;;;5061962;28;20237;-66
2021/06/12 04:48:44;;;;;;;42.80;24.00;;;16.00;99.90;;;;;;5081047;28;20235;-66
2021/06/12 04:51:12;;;;;;;40.70;23.10;;;16.10;99.90;;;;;;5081289;28;20188;-66
2021/06/12 04:53:41;;;;;;;41.10;24.00;;;16.10;99.90;;;;;;5075202;28;20239;-67
2021/06/12 04:56:09;;;;;;;41.13;24.90;;;16.10;99.90;;;;;;5082122;28;20325;-66
2021/06/12 04:58:37;;;;;;;47.93;25.40;;;16.20;99.90;;;;;;5084510;28;20302;-66
2021/06/12 05:01:05;;;;;;;38.40;23.40;;;16.20;99.90;;;;;;5064623;28;20181;-66
2021/06/12 05:03:33;;;;;;;45.33;25.77;;;16.20;99.90;;;;;;5084593;28;20203;-66
2021/06/12 05:06:01;;;;;;;44.67;24.67;;;16.20;99.90;;;;;;5080606;28;20176;-65
2021/06/12 05:08:29;;;;;;;38.23;23.70;;;16.20;99.90;;;;;;5079029;28;20191;-66
2021/06/12 05:10:58;;;;;;;39.77;24.07;;;16.30;99.90;;;;;;5081210;28;20183;-66
2021/06/12 05:13:26;;;;;;;41.43;23.33;;;16.30;99.90;;;;;;5082591;28;20192;-66
2021/06/12 05:15:54;;;;;;;43.63;22.47;;;16.30;99.90;;;;;;5080944;28;20366;-66
2021/06/12 05:18:28;;;;;;;39.27;23.10;;;16.30;99.90;;;;;;5083851;28;20184;-67
2021/06/12 05:20:56;;;;;;;39.43;23.23;;;16.40;99.90;;;;;;5083890;28;20355;-66
2021/06/12 05:23:24;;;;;;;42.57;24.50;;;16.40;99.90;;;;;;5082522;28;20215;-66
2021/06/12 05:25:52;;;;;;;38.03;23.60;;;16.40;99.90;;;;;;5082869;28;20203;-67
2021/06/12 05:28:22;;;;;;;39.37;23.47;;;16.40;99.90;;;;;;5082906;28;21439;-66
2021/06/12 05:30:50;;;;;;;36.23;22.10;;;16.40;99.90;;;;;;5082349;28;20188;-66
2021/06/12 05:33:18;;;;;;;37.93;23.60;;;16.40;99.90;;;;;;5080771;28;20362;-67
2021/06/12 05:35:46;;;;;;;37.27;23.37;;;16.40;99.90;;;;;;5083357;28;20188;-67
2021/06/12 05:38:13;;;;;;;35.27;22.13;;;16.40;99.90;;;;;;5079022;28;20246;-66
2021/06/12 05:40:41;;;;;;;34.77;22.17;;;16.40;99.90;;;;;;5083523;28;20184;-66
2021/06/12 05:43:10;;;;;;;35.77;21.77;;;16.40;99.90;;;;;;5083312;28;20188;-66
2021/06/12 05:45:39;;;;;;;30.23;20.00;;;16.50;99.90;;;;;;5082334;28;20254;-67
2021/06/12 05:48:07;;;;;;;31.53;19.77;;;16.50;99.90;;;;;;5073159;28;20355;-66
2021/06/12 05:50:35;;;;;;;31.07;21.50;;;16.50;99.90;;;;;;5055249;28;20185;-67
2021/06/12 05:53:03;;;;;;;33.33;20.83;;;16.60;99.90;;;;;;5079397;28;20218;-65
2021/06/12 05:55:31;;;;;;;30.97;20.03;;;16.60;99.90;;;;;;5083064;28;20207;-66
2021/06/12 05:57:59;;;;;;;30.73;19.60;;;16.60;99.90;;;;;;5079955;28;20200;-67
2021/06/12 06:00:28;;;;;;;34.43;20.13;;;16.60;99.90;;;;;;5079053;28;20185;-66
2021/06/12 06:02:57;;;;;;;28.30;19.03;;;16.60;99.90;;;;;;5083111;28;20200;-67
2021/06/12 06:05:26;;;;;;;26.87;18.70;;;16.70;99.90;;;;;;5082937;28;20212;-66
2021/06/12 06:07:54;;;;;;;28.53;18.80;;;16.70;99.90;;;;;;5085720;28;20215;-67
2021/06/12 06:10:22;;;;;;;27.60;19.47;;;16.70;99.90;;;;;;5087237;28;20336;-66
2021/06/12 06:12:50;;;;;;;26.57;19.00;;;16.70;99.90;;;;;;5086308;28;20185;-66
2021/06/12 06:15:19;;;;;;;29.73;20.80;;;16.70;99.90;;;;;;5089231;28;20187;-66
2021/06/12 06:17:47;;;;;;;30.10;20.37;;;16.70;99.90;;;;;;5086322;28;20231;-67
2021/06/12 06:20:17;;;;;;;27.07;19.30;;;16.70;99.90;;;;;;5086313;28;20190;-66
2021/06/12 06:22:44;;;;;;;29.83;20.27;;;16.70;99.90;;;;;;5085102;28;20230;-66
2021/06/12 06:25:13;;;;;;;25.40;18.87;;;16.70;99.90;;;;;;5085163;28;20207;-67
2021/06/12 06:27:41;;;;;;;27.00;19.90;;;16.70;99.90;;;;;;5067860;28;20233;-66
2021/06/12 06:30:10;;;;;;;28.33;20.17;;;16.70;99.90;;;;;;5084040;28;20187;-66
2021/06/12 06:32:37;;;;;;;27.13;19.37;;;16.70;99.90;;;;;;5084715;28;20185;-67
2021/06/12 06:35:07;;;;;;;29.60;20.10;;;16.70;99.90;;;;;;5083702;28;20346;-66
2021/06/12 06:37:36;;;;;;;28.07;19.53;;;16.70;99.90;;;;;;5089445;28;20242;-66
2021/06/12 06:40:05;;;;;;;30.87;19.77;;;16.70;99.90;;;;;;5086719;28;20248;-66
2021/06/12 06:42:33;;;;;;;30.23;20.30;;;16.70;99.90;;;;;;5082877;28;20401;-66
2021/06/12 06:45:01;;;;;;;31.60;18.90;;;16.60;99.90;;;;;;5085064;28;20455;-66
2021/06/12 06:47:29;;;;;;;28.13;20.23;;;16.60;99.90;;;;;;5084058;28;20201;-66
2021/06/12 06:49:57;;;;;;;30.13;20.83;;;16.60;99.90;;;;;;5060771;28;20192;-66
2021/06/12 06:52:30;;;;;;;31.33;20.23;;;16.60;99.90;;;;;;5075121;28;20191;-65
2021/06/12 06:54:59;;;;;;;30.97;19.63;;;16.60;99.90;;;;;;5083105;28;20460;-66
2021/06/12 06:57:28;;;;;;;29.00;20.23;;;16.60;99.90;;;;;;5064086;28;20298;-66
2021/06/12 06:59:56;;;;;;;32.23;21.27;;;16.60;99.90;;;;;;5065037;28;20265;-66
2021/06/12 07:02:24;;;;;;;31.47;21.23;;;16.70;99.90;;;;;;5080274;28;20188;-66
2021/06/12 07:04:52;;;;;;;33.17;20.80;;;16.70;99.90;;;;;;5082779;28;20219;-66
2021/06/12 07:07:20;;;;;;;31.97;21.03;;;16.70;99.90;;;;;;5081322;28;20491;-66
2021/06/12 07:09:48;;;;;;;35.33;21.33;;;16.70;99.90;;;;;;5064041;28;20257;-66
2021/06/12 07:12:17;;;;;;;32.20;21.80;;;16.70;99.90;;;;;;5080225;28;20310;-66
2021/06/12 07:14:45;;;;;;;33.23;21.63;;;16.80;99.90;;;;;;5082387;28;20408;-65
2021/06/12 07:17:13;;;;;;;28.63;21.07;;;16.80;99.90;;;;;;5077458;28;20188;-66
2021/06/12 07:19:41;;;;;;;33.40;20.77;;;16.80;99.90;;;;;;5066827;28;20222;-66
2021/06/12 07:22:09;;;;;;;32.43;21.50;;;16.80;99.90;;;;;;5081351;28;20325;-65
2021/06/12 07:24:37;;;;;;;32.03;20.77;;;16.80;99.90;;;;;;5056733;28;20350;-67
2021/06/12 07:27:06;;;;;;;29.17;20.57;;;16.90;99.90;;;;;;5081538;28;20180;-66
2021/06/12 07:29:37;;;;;;;29.53;21.67;;;17.00;99.90;;;;;;5078015;28;20310;-66
2021/06/12 07:32:06;;;;;;;30.00;20.67;;;17.00;99.90;;;;;;5082671;28;20402;-66
2021/06/12 07:34:34;;;;;;;28.20;20.57;;;17.10;99.90;;;;;;5082673;28;20188;-66
2021/06/12 07:37:02;;;;;;;30.80;20.37;;;17.10;99.90;;;;;;5082642;28;20219;-66
2021/06/12 07:39:30;;;;;;;29.50;20.70;;;17.10;99.90;;;;;;5078367;28;20338;-66
2021/06/12 07:41:58;;;;;;;28.47;20.47;;;17.10;99.90;;;;;;5080094;28;20195;-66
2021/06/12 07:44:26;;;;;;;31.53;20.97;;;17.10;99.90;;;;;;5083783;28;20330;-66
2021/06/12 07:46:56;;;;;;;27.47;19.43;;;17.20;99.90;;;;;;5083566;28;20349;-66
2021/06/12 07:49:24;;;;;;;29.97;20.53;;;17.10;99.90;;;;;;5065376;28;20196;-66
2021/06/12 07:51:52;;;;;;;28.37;20.43;;;17.20;99.90;;;;;;5081691;28;20192;-66
2021/06/12 07:54:20;;;;;;;28.77;20.27;;;17.30;99.90;;;;;;5078907;28;20180;-66
2021/06/12 07:56:48;;;;;;;30.97;20.27;;;17.30;99.90;;;;;;5082686;28;20259;-66
2021/06/12 07:59:15;;;;;;;29.60;19.77;;;17.40;99.90;;;;;;5080361;28;20188;-66
2021/06/12 08:01:43;;;;;;;26.43;19.07;;;17.40;99.90;;;;;;5064349;28;20177;-66
2021/06/12 08:04:13;;;;;;;24.77;18.97;;;17.40;99.90;;;;;;5084342;28;20210;-66
2021/06/12 08:06:41;;;;;;;28.10;20.17;;;17.40;99.90;;;;;;5085194;28;20209;-66
2021/06/12 08:09:09;;;;;;;28.57;20.37;;;17.40;99.90;;;;;;5084184;28;20366;-66
2021/06/12 08:11:37;;;;;;;28.53;19.33;;;17.40;99.90;;;;;;5064384;28;20184;-66
2021/06/12 08:14:05;;;;;;;27.23;19.53;;;17.40;99.90;;;;;;5082175;28;20259;-65
2021/06/12 08:16:33;;;;;;;25.67;19.97;;;17.40;99.90;;;;;;5078305;28;20196;-66
2021/06/12 08:19:01;;;;;;;30.57;19.60;;;17.50;99.90;;;;;;5078625;28;20189;-66
2021/06/12 08:21:30;;;;;;;26.37;19.93;;;17.60;99.90;;;;;;5074019;28;20204;-66
2021/06/12 08:23:58;;;;;;;25.20;19.97;;;17.70;99.90;;;;;;5079269;28;20176;-65
2021/06/12 08:26:26;;;;;;;27.97;19.63;;;17.90;99.90;;;;;;5080689;28;20185;-66
2021/06/12 08:28:54;;;;;;;26.77;19.97;;;18.10;99.90;;;;;;5080614;28;20398;-66
2021/06/12 08:31:22;;;;;;;26.33;20.13;;;18.30;99.90;;;;;;5081815;28;20208;-66
2021/06/12 08:33:50;;;;;;;26.33;19.90;;;18.50;99.90;;;;;;5081766;28;20192;-66
2021/06/12 08:36:18;;;;;;;26.37;20.10;;;18.50;99.90;;;;;;5080651;28;20248;-66
2021/06/12 08:38:50;;;;;;;26.33;20.27;;;18.70;99.90;;;;;;5079624;28;20297;-66
2021/06/12 08:41:18;;;;;;;24.87;18.80;;;18.80;99.90;;;;;;5081732;28;20199;-66
2021/06/12 08:43:47;;;;;;;23.47;19.07;;;19.00;99.90;;;;;;5081263;28;20377;-66
2021/06/12 08:46:25;;;;;;;25.40;19.13;;;19.00;99.90;;;;;;5063681;28;20286;-66
2021/06/12 08:48:54;;;;;;;23.13;18.97;;;19.10;99.90;;;;;;5076979;28;20384;-66
2021/06/12 08:51:22;;;;;;;23.43;18.57;;;19.20;99.90;;;;;;5080920;28;20263;-67
2021/06/12 08:53:52;;;;;;;25.33;19.73;;;19.20;99.90;;;;;;5082055;28;20211;-66
2021/06/12 08:56:21;;;;;;;25.10;18.87;;;19.20;99.90;;;;;;5080632;28;20492;-65
2021/06/12 08:58:49;;;;;;;28.53;18.73;;;19.20;99.90;;;;;;5077744;28;20434;-65
2021/06/12 09:01:20;;;;;;;22.87;19.07;;;19.20;99.90;;;;;;5081396;28;20192;-66
2021/06/12 09:03:50;;;;;;;25.63;19.43;;;19.20;99.90;;;;;;5079356;28;20233;-65
2021/06/12 09:06:19;;;;;;;27.47;19.73;;;19.20;99.90;;;;;;5083447;28;20208;-65
2021/06/12 09:08:48;;;;;;;23.87;18.90;;;19.20;99.90;;;;;;5082072;28;20221;-65
2021/06/12 09:11:19;;;;;;;26.03;18.83;;;19.20;99.90;;;;;;5080065;28;20446;-67
2021/06/12 09:13:49;;;;;;;23.20;19.50;;;19.20;99.90;;;;;;5078615;28;20184;-65
2021/06/12 09:16:29;;;;;;;21.67;19.00;;;19.10;99.90;;;;;;5077802;28;20245;-65
2021/06/12 09:19:16;;;;;;;24.13;19.83;;;19.20;99.90;;;;;;5075148;28;20188;-65
2021/06/12 09:21:45;;;;;;;26.60;20.07;;;19.30;99.90;;;;;;5079148;28;20255;-65
2021/06/12 09:24:25;;;;;;;27.50;19.27;;;19.40;99.90;;;;;;5083149;28;20189;-66
2021/06/12 09:26:58;;;;;;;23.67;19.53;;;19.60;99.90;;;;;;5081703;28;20176;-65
2021/06/12 09:29:35;;;;;;;22.43;18.90;;;19.80;99.90;;;;;;5079060;28;20189;-66
2021/06/12 09:32:10;;;;;;;21.30;18.63;;;20.10;99.90;;;;;;5082399;28;20305;-65
2021/06/12 09:34:39;;;;;;;23.60;18.60;;;20.40;99.90;;;;;;5061213;28;20183;-65
2021/06/12 09:37:12;;;;;;;25.67;18.97;;;20.50;99.90;;;;;;5089054;28;20180;-66
2021/06/12 09:39:44;;;;;;;21.57;18.13;;;20.40;99.90;;;;;;5086024;28;20201;-65
2021/06/12 09:42:13;;;;;;;22.40;17.50;;;20.50;99.90;;;;;;5084344;28;20291;-66
2021/06/12 09:44:44;;;;;;;19.37;17.30;;;20.50;99.90;;;;;;5081483;28;20205;-66
2021/06/12 09:47:23;;;;;;;22.20;17.67;;;20.70;99.90;;;;;;5083903;28;20357;-66
2021/06/12 09:49:59;;;;;;;20.60;18.03;;;20.80;99.90;;;;;;5088433;28;20183;-66
2021/06/12 09:52:28;;;;;;;21.07;16.87;;;20.90;99.90;;;;;;5079845;28;20192;-65
2021/06/12 09:54:57;;;;;;;19.07;16.40;;;21.10;99.90;;;;;;5077720;28;20241;-66
2021/06/12 09:57:28;;;;;;;17.30;15.53;;;21.20;99.90;;;;;;5080914;28;20220;-66
2021/06/12 09:59:57;;;;;;;18.83;16.03;;;21.20;99.90;;;;;;5081260;28;20192;-66
2021/06/12 10:02:39;;;;;;;23.30;15.90;;;21.20;99.90;;;;;;5079679;28;20202;-65
2021/06/12 10:05:09;;;;;;;18.83;15.40;;;21.00;99.90;;;;;;5080545;28;20211;-66
2021/06/12 10:07:37;;;;;;;21.10;15.27;;;21.00;99.90;;;;;;5060944;28;20483;-65
2021/06/12 10:10:08;;;;;;;18.63;15.77;;;21.20;99.90;;;;;;5079046;28;20411;-66
2021/06/12 10:12:39;;;;;;;23.97;15.40;;;21.20;99.90;;;;;;5081563;28;20188;-66
2021/06/12 10:15:10;;;;;;;16.93;15.23;;;21.30;99.90;;;;;;5065651;28;20251;-65
2021/06/12 10:17:42;;;;;;;17.17;15.33;;;21.20;99.90;;;;;;5057218;28;20184;-65
2021/06/12 10:20:12;;;;;;;15.83;14.13;;;21.30;99.90;;;;;;5078507;28;20202;-65
2021/06/12 10:22:43;;;;;;;16.37;14.77;;;21.20;99.90;;;;;;5080400;28;20911;-65
2021/06/12 10:25:12;;;;;;;15.43;13.93;;;21.20;99.90;;;;;;5082931;28;20216;-67
2021/06/12 10:27:43;;;;;;;14.70;13.20;;;21.50;99.90;;;;;;5082695;28;20210;-72
2021/06/12 10:30:13;;;;;;;15.77;13.43;;;21.70;99.90;;;;;;5081885;28;20197;-64
2021/06/12 10:32:44;;;;;;;14.90;13.40;;;21.70;99.90;;;;;;5080124;28;20192;-64
2021/06/12 10:35:16;;;;;;;17.93;13.40;;;21.80;99.90;;;;;;5083365;28;20207;-66
2021/06/12 10:37:55;;;;;;;14.97;13.57;;;21.80;99.90;;;;;;5054070;28;20176;-66
2021/06/12 10:40:41;;;;;;;15.43;13.83;;;21.70;99.90;;;;;;5083027;28;20184;-66
2021/06/12 10:43:14;;;;;;;17.17;14.93;;;21.50;99.90;;;;;;5083256;28;20466;-65
2021/06/12 10:45:44;;;;;;;14.90;13.33;;;21.60;99.90;;;;;;5082683;28;20215;-63
2021/06/12 10:48:40;;;;;;;13.67;12.37;;;22.00;99.90;;;;;;5077343;28;20185;-63
2021/06/12 10:51:09;;;;;;;12.23;11.13;;;22.40;99.90;;;;;;5067725;28;20558;-64
2021/06/12 10:53:38;;;;;;;11.97;10.77;;;22.50;99.90;;;;;;5084913;28;20199;-64
2021/06/12 10:56:06;;;;;;;10.60;9.63;;;22.70;99.90;;;;;;5085555;28;20263;-63
2021/06/12 10:58:50;;;;;;;8.17;7.57;;;23.30;99.90;;;;;;5086644;28;20188;-64
2021/06/12 11:01:20;;;;;;;7.93;7.30;;;23.90;99.90;;;;;;5083898;28;20188;-64
2021/06/12 11:03:58;;;;;;;8.67;7.70;;;24.00;99.90;;;;;;5082255;28;20262;-64
2021/06/12 11:06:42;;;;;;;8.20;7.50;;;23.80;99.90;;;;;;5076390;28;20283;-65
2021/06/12 11:09:30;;;;;;;8.73;7.77;;;23.20;99.90;;;;;;5085796;28;20324;-66
2021/06/12 11:12:01;;;;;;;8.40;7.60;;;22.60;99.90;;;;;;5081141;28;20188;-65
2021/06/12 11:14:35;;;;;;;8.00;7.30;;;22.10;99.90;;;;;;5085768;28;20251;-65
2021/06/12 11:17:18;;;;;;;7.63;6.93;;;22.10;99.90;;;;;;5084266;28;20180;-65
2021/06/12 11:19:49;;;;;;;7.30;6.70;;;22.40;99.90;;;;;;5079092;28;20249;-66
2021/06/12 11:22:25;;;;;;;7.07;6.47;;;22.50;99.90;;;;;;5081715;28;20285;-66
2021/06/12 11:24:56;;;;;;;6.03;5.43;;;22.20;99.90;;;;;;5079904;28;20179;-66
2021/06/12 11:27:27;;;;;;;5.13;4.53;;;22.10;99.90;;;;;;5063770;28;20422;-66
2021/06/12 11:30:20;;;;;;;5.27;4.87;;;22.50;99.90;;;;;;5082181;28;20184;-68
2021/06/12 11:33:12;;;;;;;4.67;4.30;;;22.80;99.90;;;;;;5081095;28;20233;-66
2021/06/12 11:35:49;;;;;;;3.57;3.27;;;22.90;99.90;;;;;;5052528;28;20199;-65
2021/06/12 11:38:18;;;;;;;4.97;4.47;;;23.40;99.90;;;;;;5079507;28;20193;-66
2021/06/12 11:40:55;;;;;;;4.20;3.83;;;23.80;99.90;;;;;;5081741;28;20174;-65
2021/06/12 11:43:37;;;;;;;3.93;3.60;;;24.20;99.90;;;;;;5080890;28;20216;-66
2021/06/12 11:46:11;;;;;;;4.50;4.10;;;24.10;99.90;;;;;;5080142;28;20226;-66
2021/06/12 11:48:43;;;;;;;4.50;4.20;;;23.80;99.90;;;;;;5060332;28;20247;-66
2021/06/12 11:51:12;;;;;;;4.60;4.20;;;24.00;99.90;;;;;;5081377;28;20193;-66
2021/06/12 11:53:41;;;;;;;7.20;5.90;;;24.60;99.90;;;;;;5081700;28;20190;-65
2021/06/12 11:56:09;;;;;;;6.93;5.80;;;24.30;99.90;;;;;;5062593;28;20222;-65
2021/06/12 11:58:55;;;;;;;7.37;5.63;;;23.70;99.90;;;;;;5062266;28;20208;-65
2021/06/12 12:01:44;;;;;;;6.53;5.87;;;23.30;99.90;;;;;;5060227;28;20198;-65
2021/06/12 12:04:14;;;;;;;7.77;5.80;;;23.00;99.90;;;;;;5056488;28;20177;-65
2021/06/12 12:06:49;;;;;;;6.73;5.80;;;22.90;99.90;;;;;;5062349;28;20212;-65
2021/06/12 12:09:23;;;;;;;5.77;5.27;;;22.90;99.90;;;;;;5062512;28;20218;-65
2021/06/12 12:11:52;;;;;;;6.53;5.73;;;23.30;99.90;;;;;;5061154;28;20193;-66
2021/06/12 12:14:27;;;;;;;7.07;6.00;;;23.30;99.90;;;;;;5060789;28;20182;-65
2021/06/12 12:16:57;;;;;;;6.93;6.10;;;23.40;99.90;;;;;;5060479;28;20449;-65
2021/06/12 12:19:25;;;;;;;5.63;5.13;;;23.40;99.90;;;;;;5062437;28;20201;-65
2021/06/12 12:21:55;;;;;;;8.17;5.80;;;23.20;99.90;;;;;;5061089;28;20330;-65
2021/06/12 12:24:28;;;;;;;5.60;5.10;;;23.00;99.90;;;;;;5062844;28;20451;-65
2021/06/12 12:27:02;;;;;;;7.00;4.83;;;22.90;99.90;;;;;;5062024;28;20258;-65
2021/06/12 12:29:33;;;;;;;6.87;5.50;;;22.90;99.90;;;;;;5062315;28;20209;-65
2021/06/12 12:32:03;;;;;;;5.30;4.80;;;23.10;99.90;;;;;;5063800;28;20347;-64
2021/06/12 12:34:37;;;;;;;5.27;4.83;;;23.20;99.90;;;;;;5064033;28;20196;-65
2021/06/12 12:37:07;;;;;;;4.87;4.33;;;23.20;99.90;;;;;;5066882;28;20267;-65
2021/06/12 12:39:40;;;;;;;8.03;4.60;;;23.30;99.90;;;;;;5063014;28;20185;-66
2021/06/12 12:42:09;;;;;;;4.97;4.47;;;23.10;99.90;;;;;;5056607;28;20204;-65
2021/06/12 12:44:42;;;;;;;8.57;4.80;;;22.90;99.90;;;;;;5061430;28;20231;-65
2021/06/12 12:47:12;;;;;;;4.33;3.93;;;22.90;99.90;;;;;;5058523;28;20232;-64
2021/06/12 12:49:41;;;;;;;4.90;4.50;;;23.30;99.90;;;;;;5060220;28;20236;-64